Confins, Brazil

12:18 AM BRT on February 28, 2017 (GMT -0300)
Tancredo Neves International | | Change Station

Elev 2713 ft 19.63 °S, 43.97 °W | Updated 18 minutes ago

Mostly Cloudy
Mostly Cloudy
66 °F
Feels Like 66 °F
N
0
Wind Variable Wind from North

Today
High -- | Low -- °F
--% Chance of Precip.
Yesterday
High -- | Low -- °F
Precip. -- in
Pressure 30.06 in
Visibility 6.2 miles
Clouds Scattered Clouds 3000 ft
Mostly Cloudy 9000 ft
Dew Point 64 °F
Humidity 94%
Rainfall 0.00 in
Snow Depth Not available.
5:53 AM 6:22 PM
Waxing Crescent, 3% visible
METAR SBCF 280300Z 00000KT 9999 SCT030 BKN090 19/18 Q1018
Pressure 30.06 in
Visibility 6.2 miles
Clouds Scattered Clouds 3000 ft
Mostly Cloudy 9000 ft
Dew Point 64 °F
Humidity 94%
Rainfall 0.00 in
Snow Depth Not available.
5:53 AM 6:22 PM
Waxing Crescent, 3% visible
METAR SBCF 280300Z 00000KT 9999 SCT030 BKN090 19/18 Q1018

Get Your Daily Forecast Email!

Thanks for signing up!

Be on the lookout for a verification email in your inbox.

You'll start receiving the daily forecast at 8 AM.

×

10-Day Weather Forecast

No radar image for this location.
×

Almanac

Astronomy

Feb. 28, 2017 Rise Set
Actual Time
Civil Twilight
Nautical Twilight
Astronomical Twilight
Moon
Length of Visible Light
Length of Day
Tomorrow will be .
, % of the Moon is Illuminated

Today's Extremes

Country Highs Country Lows

Community

WunderPhotos

Upload Photos

1,962,540 photos uploaded!

WunderBlog® & News

Nearby

Air Quality

  Air Quality AQ Index Pollutant
Not available.

Snow Depth

Station Depth Elevation

Earthquake Activity

City Distance Mag. Time & Date
Minimum magnitude displayed is 2.5.

Coastal Water Temperatures

Place Temperature

Stations

Nearby Weather Stations

Station Location Temp. Windchill Dew Point Humidity Wind Precip. Elev Updated Type